sensor_id;sensor_type;location;lat;lon;timestamp;P1;durP1;ratioP1;P2;durP2;ratioP2
55224;SDS011;41091;49.400;8.684;2023-03-04T00:00:33;14.00;;;7.18;;
55224;SDS011;41091;49.400;8.684;2023-03-04T00:03:07;15.07;;;8.07;;
55224;SDS011;41091;49.400;8.684;2023-03-04T00:05:35;11.70;;;7.35;;
55224;SDS011;41091;49.400;8.684;2023-03-04T00:08:01;13.70;;;8.10;;
55224;SDS011;41091;49.400;8.684;2023-03-04T00:10:26;13.50;;;7.10;;
55224;SDS011;41091;49.400;8.684;2023-03-04T00:12:54;14.57;;;7.18;;
55224;SDS011;41091;49.400;8.684;2023-03-04T00:15:21;11.07;;;6.50;;
55224;SDS011;41091;49.400;8.684;2023-03-04T00:17:50;13.57;;;8.13;;
55224;SDS011;41091;49.400;8.684;2023-03-04T00:20:15;12.82;;;7.63;;
55224;SDS011;41091;49.400;8.684;2023-03-04T00:22:41;10.43;;;6.80;;
55224;SDS011;41091;49.400;8.684;2023-03-04T00:25:07;13.20;;;8.10;;
55224;SDS011;41091;49.400;8.684;2023-03-04T00:27:32;13.77;;;7.88;;
55224;SDS011;41091;49.400;8.684;2023-03-04T00:29:57;15.15;;;7.78;;
55224;SDS011;41091;49.400;8.684;2023-03-04T00:32:23;16.13;;;8.00;;
55224;SDS011;41091;49.400;8.684;2023-03-04T00:34:48;21.52;;;8.75;;
55224;SDS011;41091;49.400;8.684;2023-03-04T00:37:16;16.05;;;8.43;;
55224;SDS011;41091;49.400;8.684;2023-03-04T00:39:41;15.35;;;8.38;;
55224;SDS011;41091;49.400;8.684;2023-03-04T00:42:06;15.23;;;7.68;;
55224;SDS011;41091;49.400;8.684;2023-03-04T00:44:32;19.00;;;9.02;;
55224;SDS011;41091;49.400;8.684;2023-03-04T00:46:58;17.98;;;9.55;;
55224;SDS011;41091;49.400;8.684;2023-03-04T00:49:25;16.23;;;8.55;;
55224;SDS011;41091;49.400;8.684;2023-03-04T00:51:51;15.95;;;9.23;;
55224;SDS011;41091;49.400;8.684;2023-03-04T00:54:16;24.27;;;10.25;;
55224;SDS011;41091;49.400;8.684;2023-03-04T00:56:41;17.83;;;9.95;;
55224;SDS011;41091;49.400;8.684;2023-03-04T00:59:07;16.60;;;9.45;;
55224;SDS011;41091;49.400;8.684;2023-03-04T01:01:32;20.30;;;10.38;;
55224;SDS011;41091;49.400;8.684;2023-03-04T01:04:00;18.08;;;9.35;;
55224;SDS011;41091;49.400;8.684;2023-03-04T01:06:25;19.85;;;10.57;;
55224;SDS011;41091;49.400;8.684;2023-03-04T01:08:51;19.90;;;10.35;;
55224;SDS011;41091;49.400;8.684;2023-03-04T01:11:16;19.20;;;10.35;;
55224;SDS011;41091;49.400;8.684;2023-03-04T01:13:44;17.38;;;10.70;;
55224;SDS011;41091;49.400;8.684;2023-03-04T01:16:12;19.30;;;10.75;;
55224;SDS011;41091;49.400;8.684;2023-03-04T01:18:40;23.75;;;11.27;;
55224;SDS011;41091;49.400;8.684;2023-03-04T01:21:05;29.40;;;12.02;;
55224;SDS011;41091;49.400;8.684;2023-03-04T01:23:31;21.48;;;10.18;;
55224;SDS011;41091;49.400;8.684;2023-03-04T01:25:56;22.88;;;11.15;;
55224;SDS011;41091;49.400;8.684;2023-03-04T01:28:22;27.40;;;11.90;;
55224;SDS011;41091;49.400;8.684;2023-03-04T01:30:47;22.85;;;12.48;;
55224;SDS011;41091;49.400;8.684;2023-03-04T01:33:13;28.13;;;13.10;;
55224;SDS011;41091;49.400;8.684;2023-03-04T01:35:38;27.88;;;12.27;;
55224;SDS011;41091;49.400;8.684;2023-03-04T01:38:06;21.80;;;11.25;;
55224;SDS011;41091;49.400;8.684;2023-03-04T01:40:31;23.60;;;12.77;;
55224;SDS011;41091;49.400;8.684;2023-03-04T01:43:02;24.95;;;11.75;;
55224;SDS011;41091;49.400;8.684;2023-03-04T01:45:30;27.75;;;11.70;;
55224;SDS011;41091;49.400;8.684;2023-03-04T01:47:56;24.05;;;13.20;;
55224;SDS011;41091;49.400;8.684;2023-03-04T01:50:31;27.88;;;13.77;;
55224;SDS011;41091;49.400;8.684;2023-03-04T01:53:01;28.45;;;13.25;;
55224;SDS011;41091;49.400;8.684;2023-03-04T01:55:31;27.05;;;13.13;;
55224;SDS011;41091;49.400;8.684;2023-03-04T01:57:57;27.98;;;13.38;;
55224;SDS011;41091;49.400;8.684;2023-03-04T02:00:31;29.17;;;13.75;;
55224;SDS011;41091;49.400;8.684;2023-03-04T02:02:59;30.73;;;13.70;;
55224;SDS011;41091;49.400;8.684;2023-03-04T02:05:25;27.02;;;12.60;;
55224;SDS011;41091;49.400;8.684;2023-03-04T02:07:51;25.15;;;12.98;;
55224;SDS011;41091;49.400;8.684;2023-03-04T02:10:17;28.00;;;13.23;;
55224;SDS011;41091;49.400;8.684;2023-03-04T02:12:43;29.20;;;12.63;;
55224;SDS011;41091;49.400;8.684;2023-03-04T02:15:09;27.85;;;12.27;;
55224;SDS011;41091;49.400;8.684;2023-03-04T02:17:34;27.73;;;11.95;;
55224;SDS011;41091;49.400;8.684;2023-03-04T02:20:22;24.33;;;13.40;;
55224;SDS011;41091;49.400;8.684;2023-03-04T02:26:17;36.67;;;15.23;;
55224;SDS011;41091;49.400;8.684;2023-03-04T02:28:46;34.22;;;14.35;;
55224;SDS011;41091;49.400;8.684;2023-03-04T02:33:58;34.63;;;15.13;;
55224;SDS011;41091;49.400;8.684;2023-03-04T02:36:30;30.90;;;14.35;;
55224;SDS011;41091;49.400;8.684;2023-03-04T02:39:03;32.50;;;13.57;;
55224;SDS011;41091;49.400;8.684;2023-03-04T02:41:30;27.85;;;14.25;;
55224;SDS011;41091;49.400;8.684;2023-03-04T02:43:56;32.78;;;15.43;;
55224;SDS011;41091;49.400;8.684;2023-03-04T02:46:21;29.20;;;14.10;;
55224;SDS011;41091;49.400;8.684;2023-03-04T02:48:47;25.85;;;12.00;;
55224;SDS011;41091;49.400;8.684;2023-03-04T02:51:16;23.80;;;12.25;;
55224;SDS011;41091;49.400;8.684;2023-03-04T02:53:42;25.95;;;13.23;;
55224;SDS011;41091;49.400;8.684;2023-03-04T02:56:07;23.50;;;12.50;;
55224;SDS011;41091;49.400;8.684;2023-03-04T02:58:37;23.70;;;12.77;;
55224;SDS011;41091;49.400;8.684;2023-03-04T03:01:04;24.83;;;12.88;;
55224;SDS011;41091;49.400;8.684;2023-03-04T03:03:32;24.60;;;12.43;;
55224;SDS011;41091;49.400;8.684;2023-03-04T03:05:57;27.42;;;12.88;;
55224;SDS011;41091;49.400;8.684;2023-03-04T03:08:25;31.10;;;12.15;;
55224;SDS011;41091;49.400;8.684;2023-03-04T03:10:50;23.80;;;12.10;;
55224;SDS011;41091;49.400;8.684;2023-03-04T03:13:17;29.10;;;13.07;;
55224;SDS011;41091;49.400;8.684;2023-03-04T03:15:45;26.63;;;12.75;;
55224;SDS011;41091;49.400;8.684;2023-03-04T03:18:11;23.60;;;12.05;;
55224;SDS011;41091;49.400;8.684;2023-03-04T03:20:39;30.55;;;13.25;;
55224;SDS011;41091;49.400;8.684;2023-03-04T03:23:04;36.28;;;14.85;;
55224;SDS011;41091;49.400;8.684;2023-03-04T03:25:29;30.58;;;13.80;;
55224;SDS011;41091;49.400;8.684;2023-03-04T03:27:55;28.48;;;12.65;;
55224;SDS011;41091;49.400;8.684;2023-03-04T03:30:20;31.38;;;12.45;;
55224;SDS011;41091;49.400;8.684;2023-03-04T03:32:45;31.42;;;13.07;;
55224;SDS011;41091;49.400;8.684;2023-03-04T03:35:13;26.80;;;11.80;;
55224;SDS011;41091;49.400;8.684;2023-03-04T03:37:38;32.00;;;14.10;;
55224;SDS011;41091;49.400;8.684;2023-03-04T03:40:04;24.42;;;12.57;;
55224;SDS011;41091;49.400;8.684;2023-03-04T03:42:32;28.65;;;13.18;;
55224;SDS011;41091;49.400;8.684;2023-03-04T03:44:57;28.25;;;13.23;;
55224;SDS011;41091;49.400;8.684;2023-03-04T03:47:23;27.88;;;12.80;;
55224;SDS011;41091;49.400;8.684;2023-03-04T03:49:48;27.15;;;13.38;;
55224;SDS011;41091;49.400;8.684;2023-03-04T03:52:13;31.48;;;13.27;;
55224;SDS011;41091;49.400;8.684;2023-03-04T03:54:39;28.73;;;12.68;;
55224;SDS011;41091;49.400;8.684;2023-03-04T03:57:04;23.15;;;11.70;;
55224;SDS011;41091;49.400;8.684;2023-03-04T03:59:30;23.63;;;12.98;;
55224;SDS011;41091;49.400;8.684;2023-03-04T04:01:55;19.98;;;11.80;;
55224;SDS011;41091;49.400;8.684;2023-03-04T04:04:20;27.20;;;10.60;;
55224;SDS011;41091;49.400;8.684;2023-03-04T04:06:46;24.63;;;10.57;;
55224;SDS011;41091;49.400;8.684;2023-03-04T04:09:13;24.80;;;10.82;;
55224;SDS011;41091;49.400;8.684;2023-03-04T04:11:39;21.83;;;11.40;;
55224;SDS011;41091;49.400;8.684;2023-03-04T04:14:04;19.50;;;10.25;;
55224;SDS011;41091;49.400;8.684;2023-03-04T04:16:29;24.30;;;11.18;;
55224;SDS011;41091;49.400;8.684;2023-03-04T04:18:55;26.83;;;11.23;;
55224;SDS011;41091;49.400;8.684;2023-03-04T04:21:20;17.38;;;9.52;;
55224;SDS011;41091;49.400;8.684;2023-03-04T04:23:48;20.83;;;9.93;;
55224;SDS011;41091;49.400;8.684;2023-03-04T04:26:13;21.45;;;11.57;;
55224;SDS011;41091;49.400;8.684;2023-03-04T04:28:39;21.10;;;10.15;;
55224;SDS011;41091;49.400;8.684;2023-03-04T04:31:08;23.65;;;10.93;;
55224;SDS011;41091;49.400;8.684;2023-03-04T04:33:33;27.08;;;10.70;;
55224;SDS011;41091;49.400;8.684;2023-03-04T04:35:59;23.60;;;10.90;;
55224;SDS011;41091;49.400;8.684;2023-03-04T04:38:42;23.17;;;10.70;;
55224;SDS011;41091;49.400;8.684;2023-03-04T04:41:30;20.48;;;11.02;;
55224;SDS011;41091;49.400;8.684;2023-03-04T04:43:54;26.15;;;10.75;;
55224;SDS011;41091;49.400;8.684;2023-03-04T04:46:21;20.75;;;10.05;;
55224;SDS011;41091;49.400;8.684;2023-03-04T04:48:46;20.17;;;10.73;;
55224;SDS011;41091;49.400;8.684;2023-03-04T04:51:12;25.15;;;11.30;;
55224;SDS011;41091;49.400;8.684;2023-03-04T04:53:37;22.55;;;11.75;;
55224;SDS011;41091;49.400;8.684;2023-03-04T05:02:43;19.50;;;9.90;;
55224;SDS011;41091;49.400;8.684;2023-03-04T05:06:26;33.55;;;11.70;;
55224;SDS011;41091;49.400;8.684;2023-03-04T05:11:31;37.75;;;13.30;;
55224;SDS011;41091;49.400;8.684;2023-03-04T05:13:57;23.48;;;12.52;;
55224;SDS011;41091;49.400;8.684;2023-03-04T05:16:27;31.05;;;14.00;;
55224;SDS011;41091;49.400;8.684;2023-03-04T05:18:52;36.47;;;14.27;;
55224;SDS011;41091;49.400;8.684;2023-03-04T05:21:18;32.08;;;14.18;;
55224;SDS011;41091;49.400;8.684;2023-03-04T05:23:45;38.90;;;14.68;;
55224;SDS011;41091;49.400;8.684;2023-03-04T05:26:14;37.22;;;15.68;;
55224;SDS011;41091;49.400;8.684;2023-03-04T05:28:41;39.13;;;16.25;;
55224;SDS011;41091;49.400;8.684;2023-03-04T05:31:06;38.17;;;15.00;;
55224;SDS011;41091;49.400;8.684;2023-03-04T05:33:34;35.05;;;14.35;;
55224;SDS011;41091;49.400;8.684;2023-03-04T05:36:00;35.22;;;14.68;;
55224;SDS011;41091;49.400;8.684;2023-03-04T05:38:25;42.45;;;16.27;;
55224;SDS011;41091;49.400;8.684;2023-03-04T05:40:57;40.15;;;15.52;;
55224;SDS011;41091;49.400;8.684;2023-03-04T05:43:25;47.47;;;18.02;;
55224;SDS011;41091;49.400;8.684;2023-03-04T05:45:51;51.15;;;18.17;;
55224;SDS011;41091;49.400;8.684;2023-03-04T05:48:17;39.75;;;17.25;;
55224;SDS011;41091;49.400;8.684;2023-03-04T05:50:42;46.95;;;18.73;;
55224;SDS011;41091;49.400;8.684;2023-03-04T05:53:10;43.85;;;18.92;;
55224;SDS011;41091;49.400;8.684;2023-03-04T05:55:38;48.33;;;17.10;;
55224;SDS011;41091;49.400;8.684;2023-03-04T05:58:03;44.78;;;18.83;;
55224;SDS011;41091;49.400;8.684;2023-03-04T06:00:29;38.75;;;18.08;;
55224;SDS011;41091;49.400;8.684;2023-03-04T06:02:56;41.85;;;16.10;;
55224;SDS011;41091;49.400;8.684;2023-03-04T06:05:22;40.30;;;16.98;;
55224;SDS011;41091;49.400;8.684;2023-03-04T06:07:47;38.05;;;17.60;;
55224;SDS011;41091;49.400;8.684;2023-03-04T06:10:16;42.72;;;16.85;;
55224;SDS011;41091;49.400;8.684;2023-03-04T06:12:42;35.00;;;15.43;;
55224;SDS011;41091;49.400;8.684;2023-03-04T06:15:12;37.85;;;15.43;;
55224;SDS011;41091;49.400;8.684;2023-03-04T06:17:38;45.63;;;16.58;;
55224;SDS011;41091;49.400;8.684;2023-03-04T06:20:07;35.53;;;15.85;;
55224;SDS011;41091;49.400;8.684;2023-03-04T06:22:33;36.65;;;16.33;;
55224;SDS011;41091;49.400;8.684;2023-03-04T06:24:59;39.17;;;16.80;;
55224;SDS011;41091;49.400;8.684;2023-03-04T06:27:27;41.17;;;17.90;;
55224;SDS011;41091;49.400;8.684;2023-03-04T06:29:53;39.65;;;18.50;;
55224;SDS011;41091;49.400;8.684;2023-03-04T06:32:20;39.50;;;17.40;;
55224;SDS011;41091;49.400;8.684;2023-03-04T06:34:46;47.22;;;18.42;;
55224;SDS011;41091;49.400;8.684;2023-03-04T06:37:11;40.33;;;18.08;;
55224;SDS011;41091;49.400;8.684;2023-03-04T06:39:36;34.10;;;16.08;;
55224;SDS011;41091;49.400;8.684;2023-03-04T06:42:02;47.92;;;19.30;;
55224;SDS011;41091;49.400;8.684;2023-03-04T06:44:27;37.90;;;17.35;;
55224;SDS011;41091;49.400;8.684;2023-03-04T06:46:52;39.58;;;16.83;;
55224;SDS011;41091;49.400;8.684;2023-03-04T06:49:18;42.10;;;17.95;;
55224;SDS011;41091;49.400;8.684;2023-03-04T06:51:43;38.47;;;16.90;;
55224;SDS011;41091;49.400;8.684;2023-03-04T06:54:09;38.28;;;16.88;;
55224;SDS011;41091;49.400;8.684;2023-03-04T06:56:34;32.30;;;15.18;;
55224;SDS011;41091;49.400;8.684;2023-03-04T06:59:02;38.50;;;15.38;;
55224;SDS011;41091;49.400;8.684;2023-03-04T07:01:28;41.10;;;17.17;;
55224;SDS011;41091;49.400;8.684;2023-03-04T07:03:55;46.15;;;16.33;;
55224;SDS011;41091;49.400;8.684;2023-03-04T07:06:23;32.97;;;15.40;;
55224;SDS011;41091;49.400;8.684;2023-03-04T07:08:50;36.35;;;15.15;;
55224;SDS011;41091;49.400;8.684;2023-03-04T07:11:15;35.17;;;15.70;;
55224;SDS011;41091;49.400;8.684;2023-03-04T07:13:43;34.33;;;16.40;;
55224;SDS011;41091;49.400;8.684;2023-03-04T07:16:10;32.80;;;16.00;;
55224;SDS011;41091;49.400;8.684;2023-03-04T07:18:37;39.85;;;15.90;;
55224;SDS011;41091;49.400;8.684;2023-03-04T07:21:03;33.95;;;14.07;;
55224;SDS011;41091;49.400;8.684;2023-03-04T07:23:29;37.83;;;17.45;;
55224;SDS011;41091;49.400;8.684;2023-03-04T07:25:54;34.85;;;16.52;;
55224;SDS011;41091;49.400;8.684;2023-03-04T07:28:19;36.67;;;15.75;;
55224;SDS011;41091;49.400;8.684;2023-03-04T07:30:45;42.70;;;16.05;;
55224;SDS011;41091;49.400;8.684;2023-03-04T07:33:13;37.95;;;15.93;;
55224;SDS011;41091;49.400;8.684;2023-03-04T07:35:43;36.20;;;16.02;;
55224;SDS011;41091;49.400;8.684;2023-03-04T07:38:11;35.65;;;16.83;;
55224;SDS011;41091;49.400;8.684;2023-03-04T07:40:37;45.90;;;18.65;;
55224;SDS011;41091;49.400;8.684;2023-03-04T07:43:02;40.03;;;18.05;;
55224;SDS011;41091;49.400;8.684;2023-03-04T07:45:28;39.60;;;17.98;;
55224;SDS011;41091;49.400;8.684;2023-03-04T07:47:53;46.35;;;19.30;;
55224;SDS011;41091;49.400;8.684;2023-03-04T07:50:19;43.20;;;17.25;;
55224;SDS011;41091;49.400;8.684;2023-03-04T07:52:46;45.13;;;19.88;;
55224;SDS011;41091;49.400;8.684;2023-03-04T07:55:13;42.75;;;18.60;;
55224;SDS011;41091;49.400;8.684;2023-03-04T07:57:44;46.55;;;17.02;;
55224;SDS011;41091;49.400;8.684;2023-03-04T08:00:14;41.15;;;17.83;;
55224;SDS011;41091;49.400;8.684;2023-03-04T08:02:40;38.13;;;18.33;;
55224;SDS011;41091;49.400;8.684;2023-03-04T08:05:06;52.10;;;18.83;;
55224;SDS011;41091;49.400;8.684;2023-03-04T08:07:34;44.00;;;18.73;;
55224;SDS011;41091;49.400;8.684;2023-03-04T08:10:02;43.95;;;19.10;;
55224;SDS011;41091;49.400;8.684;2023-03-04T08:12:31;41.47;;;18.88;;
55224;SDS011;41091;49.400;8.684;2023-03-04T08:14:57;48.85;;;19.73;;
55224;SDS011;41091;49.400;8.684;2023-03-04T08:17:22;53.60;;;21.80;;
55224;SDS011;41091;49.400;8.684;2023-03-04T08:19:48;52.50;;;21.25;;
55224;SDS011;41091;49.400;8.684;2023-03-04T08:22:15;54.03;;;21.10;;
55224;SDS011;41091;49.400;8.684;2023-03-04T08:24:41;48.05;;;20.35;;
55224;SDS011;41091;49.400;8.684;2023-03-04T08:27:06;48.53;;;19.83;;
55224;SDS011;41091;49.400;8.684;2023-03-04T08:29:31;48.60;;;19.90;;
55224;SDS011;41091;49.400;8.684;2023-03-04T08:31:57;45.47;;;20.30;;
55224;SDS011;41091;49.400;8.684;2023-03-04T08:34:24;55.33;;;21.85;;
55224;SDS011;41091;49.400;8.684;2023-03-04T08:36:50;52.58;;;22.20;;
55224;SDS011;41091;49.400;8.684;2023-03-04T08:39:16;50.28;;;21.48;;
55224;SDS011;41091;49.400;8.684;2023-03-04T08:41:45;47.72;;;21.48;;
55224;SDS011;41091;49.400;8.684;2023-03-04T08:44:13;54.97;;;20.60;;
55224;SDS011;41091;49.400;8.684;2023-03-04T08:46:39;48.20;;;19.60;;
55224;SDS011;41091;49.400;8.684;2023-03-04T08:49:09;56.90;;;21.02;;
55224;SDS011;41091;49.400;8.684;2023-03-04T08:51:35;55.15;;;20.00;;
55224;SDS011;41091;49.400;8.684;2023-03-04T08:54:01;55.60;;;20.30;;
55224;SDS011;41091;49.400;8.684;2023-03-04T08:56:30;50.50;;;21.25;;
55224;SDS011;41091;49.400;8.684;2023-03-04T08:58:58;53.60;;;20.98;;
55224;SDS011;41091;49.400;8.684;2023-03-04T09:01:23;47.85;;;20.35;;
55224;SDS011;41091;49.400;8.684;2023-03-04T09:03:48;52.20;;;21.08;;
55224;SDS011;41091;49.400;8.684;2023-03-04T09:06:15;63.50;;;22.15;;
55224;SDS011;41091;49.400;8.684;2023-03-04T09:08:41;50.80;;;23.08;;
55224;SDS011;41091;49.400;8.684;2023-03-04T09:11:08;56.53;;;22.77;;
55224;SDS011;41091;49.400;8.684;2023-03-04T09:13:34;52.03;;;22.10;;
55224;SDS011;41091;49.400;8.684;2023-03-04T09:15:59;57.15;;;21.42;;
55224;SDS011;41091;49.400;8.684;2023-03-04T09:18:27;47.70;;;22.10;;
55224;SDS011;41091;49.400;8.684;2023-03-04T09:20:57;52.45;;;21.02;;
55224;SDS011;41091;49.400;8.684;2023-03-04T09:23:25;63.92;;;23.88;;
55224;SDS011;41091;49.400;8.684;2023-03-04T09:25:50;61.38;;;25.13;;
55224;SDS011;41091;49.400;8.684;2023-03-04T09:28:16;59.67;;;23.58;;
55224;SDS011;41091;49.400;8.684;2023-03-04T09:30:45;67.68;;;23.95;;
55224;SDS011;41091;49.400;8.684;2023-03-04T09:33:10;55.03;;;25.35;;
55224;SDS011;41091;49.400;8.684;2023-03-04T09:35:36;60.97;;;23.98;;
55224;SDS011;41091;49.400;8.684;2023-03-04T09:38:01;58.00;;;24.00;;
55224;SDS011;41091;49.400;8.684;2023-03-04T09:40:29;54.15;;;24.17;;
55224;SDS011;41091;49.400;8.684;2023-03-04T09:42:58;66.65;;;22.92;;
55224;SDS011;41091;49.400;8.684;2023-03-04T09:45:34;58.47;;;23.17;;
55224;SDS011;41091;49.400;8.684;2023-03-04T09:48:02;63.30;;;24.80;;
55224;SDS011;41091;49.400;8.684;2023-03-04T09:50:29;65.10;;;22.52;;
55224;SDS011;41091;49.400;8.684;2023-03-04T09:55:49;57.83;;;23.00;;
55224;SDS011;41091;49.400;8.684;2023-03-04T09:58:20;69.10;;;25.00;;
55224;SDS011;41091;49.400;8.684;2023-03-04T10:01:19;70.68;;;26.75;;
55224;SDS011;41091;49.400;8.684;2023-03-04T10:03:57;56.78;;;23.15;;
55224;SDS011;41091;49.400;8.684;2023-03-04T10:06:26;69.68;;;25.88;;
55224;SDS011;41091;49.400;8.684;2023-03-04T10:16:51;65.53;;;25.67;;
55224;SDS011;41091;49.400;8.684;2023-03-04T10:22:14;63.50;;;26.27;;
55224;SDS011;41091;49.400;8.684;2023-03-04T10:24:44;63.38;;;25.50;;
55224;SDS011;41091;49.400;8.684;2023-03-04T10:27:11;76.03;;;28.15;;
55224;SDS011;41091;49.400;8.684;2023-03-04T10:29:40;65.18;;;26.25;;
55224;SDS011;41091;49.400;8.684;2023-03-04T10:32:11;68.95;;;28.15;;
55224;SDS011;41091;49.400;8.684;2023-03-04T10:34:38;68.50;;;26.55;;
55224;SDS011;41091;49.400;8.684;2023-03-04T10:37:04;70.57;;;25.92;;
55224;SDS011;41091;49.400;8.684;2023-03-04T10:39:41;69.63;;;27.35;;
55224;SDS011;41091;49.400;8.684;2023-03-04T10:44:58;67.38;;;27.42;;
55224;SDS011;41091;49.400;8.684;2023-03-04T10:47:28;69.25;;;26.45;;
55224;SDS011;41091;49.400;8.684;2023-03-04T10:49:58;73.90;;;27.50;;
55224;SDS011;41091;49.400;8.684;2023-03-04T10:54:59;70.75;;;27.48;;
55224;SDS011;41091;49.400;8.684;2023-03-04T11:17:21;67.95;;;25.63;;
55224;SDS011;41091;49.400;8.684;2023-03-04T11:19:48;61.85;;;24.60;;
55224;SDS011;41091;49.400;8.684;2023-03-04T11:22:22;65.75;;;25.90;;
55224;SDS011;41091;49.400;8.684;2023-03-04T11:25:07;58.50;;;25.05;;
55224;SDS011;41091;49.400;8.684;2023-03-04T11:27:40;69.47;;;27.13;;
55224;SDS011;41091;49.400;8.684;2023-03-04T11:32:45;68.82;;;26.75;;
55224;SDS011;41091;49.400;8.684;2023-03-04T11:35:24;67.82;;;27.88;;
55224;SDS011;41091;49.400;8.684;2023-03-04T11:37:56;58.40;;;22.58;;
55224;SDS011;41091;49.400;8.684;2023-03-04T11:40:40;65.75;;;25.40;;
55224;SDS011;41091;49.400;8.684;2023-03-04T11:46:03;53.20;;;22.83;;
55224;SDS011;41091;49.400;8.684;2023-03-04T11:48:46;53.90;;;23.15;;
55224;SDS011;41091;49.400;8.684;2023-03-04T11:59:07;65.05;;;25.23;;
55224;SDS011;41091;49.400;8.684;2023-03-04T12:09:56;51.17;;;23.88;;
55224;SDS011;41091;49.400;8.684;2023-03-04T12:29:42;52.03;;;21.67;;
55224;SDS011;41091;49.400;8.684;2023-03-04T12:48:26;48.33;;;20.48;;
55224;SDS011;41091;49.400;8.684;2023-03-04T12:56:38;48.03;;;19.60;;
55224;SDS011;41091;49.400;8.684;2023-03-04T12:59:08;45.08;;;19.73;;
55224;SDS011;41091;49.400;8.684;2023-03-04T13:01:39;39.55;;;18.63;;
55224;SDS011;41091;49.400;8.684;2023-03-04T13:04:08;45.05;;;19.23;;
55224;SDS011;41091;49.400;8.684;2023-03-04T13:09:28;40.05;;;15.98;;
55224;SDS011;41091;49.400;8.684;2023-03-04T13:12:03;39.03;;;16.88;;
55224;SDS011;41091;49.400;8.684;2023-03-04T13:14:38;34.92;;;17.83;;
55224;SDS011;41091;49.400;8.684;2023-03-04T13:20:17;33.67;;;14.70;;
55224;SDS011;41091;49.400;8.684;2023-03-04T13:32:55;26.52;;;12.65;;
55224;SDS011;41091;49.400;8.684;2023-03-04T13:41:20;26.10;;;12.93;;
55224;SDS011;41091;49.400;8.684;2023-03-04T13:59:28;29.75;;;13.93;;
55224;SDS011;41091;49.400;8.684;2023-03-04T14:02:32;38.72;;;14.75;;
55224;SDS011;41091;49.400;8.684;2023-03-04T14:04:59;31.25;;;14.55;;
55224;SDS011;41091;49.400;8.684;2023-03-04T14:07:28;32.58;;;14.35;;
55224;SDS011;41091;49.400;8.684;2023-03-04T14:10:03;34.53;;;13.77;;
55224;SDS011;41091;49.400;8.684;2023-03-04T14:12:35;41.20;;;14.13;;
55224;SDS011;41091;49.400;8.684;2023-03-04T14:17:38;33.72;;;13.05;;
55224;SDS011;41091;49.400;8.684;2023-03-04T14:20:06;29.65;;;12.50;;
55224;SDS011;41091;49.400;8.684;2023-03-04T14:22:48;33.47;;;14.35;;
55224;SDS011;41091;49.400;8.684;2023-03-04T14:27:55;31.08;;;13.65;;
55224;SDS011;41091;49.400;8.684;2023-03-04T14:30:37;34.60;;;15.15;;
55224;SDS011;41091;49.400;8.684;2023-03-04T14:33:15;33.00;;;15.35;;
55224;SDS011;41091;49.400;8.684;2023-03-04T14:35:48;25.98;;;13.85;;
55224;SDS011;41091;49.400;8.684;2023-03-04T14:38:25;36.65;;;15.10;;
55224;SDS011;41091;49.400;8.684;2023-03-04T14:41:36;30.17;;;14.30;;
55224;SDS011;41091;49.400;8.684;2023-03-04T14:43:49;30.33;;;14.98;;
55224;SDS011;41091;49.400;8.684;2023-03-04T14:46:17;43.65;;;14.60;;
55224;SDS011;41091;49.400;8.684;2023-03-04T14:48:44;38.30;;;15.65;;
55224;SDS011;41091;49.400;8.684;2023-03-04T14:53:56;40.00;;;17.63;;
55224;SDS011;41091;49.400;8.684;2023-03-04T14:56:29;48.65;;;19.88;;
55224;SDS011;41091;49.400;8.684;2023-03-04T14:58:57;50.15;;;16.90;;
55224;SDS011;41091;49.400;8.684;2023-03-04T15:01:35;32.22;;;15.85;;
55224;SDS011;41091;49.400;8.684;2023-03-04T15:04:10;30.80;;;14.15;;
55224;SDS011;41091;49.400;8.684;2023-03-04T15:06:37;37.45;;;14.90;;
55224;SDS011;41091;49.400;8.684;2023-03-04T15:09:04;36.03;;;16.10;;
55224;SDS011;41091;49.400;8.684;2023-03-04T15:22:36;35.88;;;16.02;;
55224;SDS011;41091;49.400;8.684;2023-03-04T15:25:26;32.85;;;15.02;;
55224;SDS011;41091;49.400;8.684;2023-03-04T15:27:52;36.15;;;15.18;;
55224;SDS011;41091;49.400;8.684;2023-03-04T15:32:47;36.67;;;15.85;;
55224;SDS011;41091;49.400;8.684;2023-03-04T15:35:13;36.88;;;14.88;;
55224;SDS011;41091;49.400;8.684;2023-03-04T15:37:40;38.60;;;15.95;;
55224;SDS011;41091;49.400;8.684;2023-03-04T15:40:13;30.45;;;15.50;;
55224;SDS011;41091;49.400;8.684;2023-03-04T15:42:48;31.83;;;14.45;;
55224;SDS011;41091;49.400;8.684;2023-03-04T15:45:19;31.98;;;14.93;;
55224;SDS011;41091;49.400;8.684;2023-03-04T15:47:49;37.85;;;15.65;;
55224;SDS011;41091;49.400;8.684;2023-03-04T15:50:15;37.42;;;15.88;;
55224;SDS011;41091;49.400;8.684;2023-03-04T15:52:44;31.10;;;14.38;;
55224;SDS011;41091;49.400;8.684;2023-03-04T15:55:13;32.00;;;15.38;;
55224;SDS011;41091;49.400;8.684;2023-03-04T15:57:39;36.45;;;15.13;;
55224;SDS011;41091;49.400;8.684;2023-03-04T16:00:05;39.92;;;15.23;;
55224;SDS011;41091;49.400;8.684;2023-03-04T16:02:31;41.47;;;16.15;;
55224;SDS011;41091;49.400;8.684;2023-03-04T16:04:57;37.80;;;15.60;;
55224;SDS011;41091;49.400;8.684;2023-03-04T16:07:23;36.83;;;16.90;;
55224;SDS011;41091;49.400;8.684;2023-03-04T16:09:51;42.60;;;16.13;;
55224;SDS011;41091;49.400;8.684;2023-03-04T16:12:19;51.05;;;19.25;;
55224;SDS011;41091;49.400;8.684;2023-03-04T16:14:48;48.13;;;16.83;;
55224;SDS011;41091;49.400;8.684;2023-03-04T16:17:14;31.80;;;15.38;;
55224;SDS011;41091;49.400;8.684;2023-03-04T16:19:42;30.95;;;15.77;;
55224;SDS011;41091;49.400;8.684;2023-03-04T16:22:13;37.53;;;16.77;;
55224;SDS011;41091;49.400;8.684;2023-03-04T16:24:40;40.97;;;16.73;;
55224;SDS011;41091;49.400;8.684;2023-03-04T16:27:09;33.75;;;15.48;;
55224;SDS011;41091;49.400;8.684;2023-03-04T16:29:38;42.90;;;15.52;;
55224;SDS011;41091;49.400;8.684;2023-03-04T16:32:04;30.35;;;12.98;;
55224;SDS011;41091;49.400;8.684;2023-03-04T16:34:32;33.42;;;15.52;;
55224;SDS011;41091;49.400;8.684;2023-03-04T16:36:57;32.55;;;15.23;;
55224;SDS011;41091;49.400;8.684;2023-03-04T16:39:25;36.85;;;14.70;;
55224;SDS011;41091;49.400;8.684;2023-03-04T16:41:50;39.63;;;14.85;;
55224;SDS011;41091;49.400;8.684;2023-03-04T16:44:16;35.65;;;14.52;;
55224;SDS011;41091;49.400;8.684;2023-03-04T16:46:44;42.42;;;16.83;;
55224;SDS011;41091;49.400;8.684;2023-03-04T16:49:09;35.70;;;15.05;;
55224;SDS011;41091;49.400;8.684;2023-03-04T16:51:35;44.13;;;15.43;;
55224;SDS011;41091;49.400;8.684;2023-03-04T16:54:09;36.17;;;15.68;;
55224;SDS011;41091;49.400;8.684;2023-03-04T16:56:40;37.20;;;15.57;;
55224;SDS011;41091;49.400;8.684;2023-03-04T16:59:05;34.22;;;15.18;;
55224;SDS011;41091;49.400;8.684;2023-03-04T17:01:31;43.40;;;15.70;;
55224;SDS011;41091;49.400;8.684;2023-03-04T17:03:57;28.70;;;14.02;;
55224;SDS011;41091;49.400;8.684;2023-03-04T17:06:23;35.78;;;15.57;;
55224;SDS011;41091;49.400;8.684;2023-03-04T17:08:52;37.22;;;13.65;;
55224;SDS011;41091;49.400;8.684;2023-03-04T17:11:20;29.30;;;13.77;;
55224;SDS011;41091;49.400;8.684;2023-03-04T17:13:47;35.60;;;15.93;;
55224;SDS011;41091;49.400;8.684;2023-03-04T17:16:13;38.58;;;15.38;;
55224;SDS011;41091;49.400;8.684;2023-03-04T17:18:39;35.10;;;14.65;;
55224;SDS011;41091;49.400;8.684;2023-03-04T17:21:06;38.30;;;16.70;;
55224;SDS011;41091;49.400;8.684;2023-03-04T17:23:34;58.50;;;16.05;;